20 | 04 | 2018

Daten Vortag

Wetterdaten von 10m Höhe gemessen, Station2

Datum / Zeit Intervall min Luftfeuchte % Temperatur °C absolut Luftdruck hPa Wind m/s Windbö m/s Richtung Relative Luftdruck hPa Taupunkt °C Windchill °C Niederschlag mm
19-04-2018 00:14 5 84 12.7 1032.5 0.0 0.0 W 1034.7 10.1 12.7 0.0
19-04-2018 00:19 5 84 12.8 1032.5 0.0 0.0 W 1034.7 10.2 12.8 0.0
19-04-2018 00:24 5 84 12.7 1032.4 2.5 3.6 W 1034.6 10.1 12.7 0.0
19-04-2018 00:29 5 84 12.4 1032.5 3.6 5.0 W 1034.7 9.8 12.4 0.0
19-04-2018 00:34 5 84 12.0 1032.6 1.1 2.5 W 1034.8 9.4 12.0 0.0
19-04-2018 00:39 5 86 11.9 1032.4 0.0 0.0 W 1034.6 9.6 11.9 0.0
19-04-2018 00:44 5 86 11.9 1032.4 0.0 0.0 W 1034.6 9.6 11.9 0.0
19-04-2018 00:49 5 86 12.0 1032.5 2.5 3.6 W 1034.7 9.7 12.0 0.0
19-04-2018 00:54 5 87 11.9 1032.4 0.0 1.1 W 1034.6 9.8 11.9 0.0
19-04-2018 00:59 5 87 11.7 1032.6 0.0 0.0 W 1034.8 9.6 11.7 0.0
19-04-2018 01:04 5 87 11.6 1032.4 0.0 0.0 W 1034.6 9.5 11.6 0.0
19-04-2018 01:09 5 87 11.5 1032.3 0.0 0.0 W 1034.5 9.4 11.5 0.0
19-04-2018 01:14 5 88 11.5 1032.5 1.1 3.6 W 1034.7 9.6 11.5 0.0
19-04-2018 01:19 5 88 11.4 1032.4 0.0 0.0 W 1034.6 9.5 11.4 0.0
19-04-2018 01:24 5 88 11.3 1032.3 0.0 0.0 W 1034.5 9.4 11.3 0.0
19-04-2018 01:29 5 88 11.2 1032.3 0.0 0.0 W 1034.5 9.3 11.2 0.0
19-04-2018 01:34 5 88 11.2 1032.2 0.0 0.0 W 1034.4 9.3 11.2 0.0
19-04-2018 01:39 5 89 11.2 1032.2 0.0 0.0 W 1034.4 9.5 11.2 0.0
19-04-2018 01:44 5 89 11.3 1032.1 0.0 0.0 SW 1034.3 9.6 11.3 0.0
19-04-2018 01:49 5 90 11.4 1031.9 0.0 0.0 SW 1034.1 9.8 11.4 0.0
19-04-2018 01:54 5 90 11.3 1031.9 0.0 0.0 SW 1034.1 9.7 11.3 0.0
19-04-2018 01:59 5 90 11.1 1031.9 0.0 0.0 SW 1034.1 9.5 11.1 0.0
19-04-2018 02:04 5 90 11.1 1031.9 0.0 0.0 SW 1034.1 9.5 11.1 0.0
19-04-2018 02:09 5 90 11.1 1031.9 0.0 0.0 SW 1034.1 9.5 11.1 0.0
19-04-2018 02:14 5 90 11.0 1031.9 0.0 0.0 SW 1034.1 9.4 11.0 0.0
19-04-2018 02:19 5 91 10.7 1032.0 0.0 0.0 SW 1034.2 9.3 10.7 0.0
19-04-2018 02:24 5 91 10.6 1031.8 0.0 0.0 SW 1034.0 9.2 10.6 0.0
19-04-2018 02:29 5 91 10.5 1031.6 0.0 0.0 SW 1033.8 9.1 10.5 0.0
19-04-2018 02:34 5 91 10.7 1031.7 0.0 0.0 SW 1033.9 9.3 10.7 0.0
19-04-2018 02:39 5 91 10.5 1031.8 0.0 0.0 SW 1034.0 9.1 10.5 0.0
19-04-2018 02:44 5 91 10.6 1031.6 0.0 0.0 SW 1033.8 9.2 10.6 0.0
19-04-2018 02:49 5 91 10.5 1031.5 0.0 0.0 SW 1033.7 9.1 10.5 0.0
19-04-2018 02:54 5 91 10.4 1031.6 0.0 1.1 SW 1033.8 9.0 10.4 0.0
19-04-2018 02:59 5 91 10.2 1031.6 0.0 0.0 SW 1033.8 8.8 10.2 0.0
19-04-2018 03:04 5 91 10.2 1031.6 0.0 0.0 SW 1033.8 8.8 10.2 0.0
19-04-2018 03:09 5 91 10.1 1031.5 0.0 0.0 SW 1033.7 8.7 10.1 0.0
19-04-2018 03:14 5 91 10.1 1031.5 0.0 0.0 SW 1033.7 8.7 10.1 0.0
19-04-2018 03:19 5 91 10.2 1031.4 0.0 0.0 SW 1033.6 8.8 10.2 0.0
19-04-2018 03:24 5 91 10.1 1031.3 0.0 0.0 SW 1033.5 8.7 10.1 0.0
19-04-2018 03:29 5 91 10.1 1031.4 0.0 0.0 SW 1033.6 8.7 10.1 0.0
19-04-2018 03:34 5 91 10.0 1031.4 0.0 0.0 SW 1033.6 8.6 10.0 0.0
19-04-2018 03:39 5 91 10.0 1031.4 1.1 2.5 SW 1033.6 8.6 10.0 0.0
19-04-2018 03:44 5 91 10.1 1031.5 3.6 5.0 SW 1033.7 8.7 10.1 0.0
19-04-2018 03:49 5 92 9.7 1031.6 2.5 3.6 W 1033.8 8.5 9.7 0.0
19-04-2018 03:54 5 92 9.3 1031.4 1.1 2.5 W 1033.6 8.1 9.3 0.0
19-04-2018 03:59 5 92 9.1 1031.5 0.0 2.5 W 1033.7 7.9 9.1 0.0
19-04-2018 04:04 5 92 9.0 1031.5 0.0 0.0 W 1033.7 7.8 9.0 0.0
19-04-2018 04:09 5 92 9.1 1031.5 0.0 0.0 W 1033.7 7.9 9.1 0.0
19-04-2018 04:14 5 93 9.5 1031.4 0.0 0.0 W 1033.6 8.4 9.5 0.0
19-04-2018 04:19 5 93 9.6 1031.4 0.0 0.0 W 1033.6 8.5 9.6 0.0
19-04-2018 04:24 5 93 9.7 1031.4 0.0 0.0 W 1033.6 8.6 9.7 0.0
19-04-2018 04:29 5 94 9.8 1031.4 0.0 0.0 W 1033.6 8.9 9.8 0.0
19-04-2018 04:34 5 94 9.7 1031.4 0.0 0.0 W 1033.6 8.8 9.7 0.0
19-04-2018 04:39 5 93 9.2 1031.3 0.0 0.0 W 1033.5 8.1 9.2 0.0
19-04-2018 04:44 5 93 9.0 1031.4 0.0 0.0 W 1033.6 7.9 9.0 0.0
19-04-2018 04:49 5 93 9.0 1031.3 0.0 0.0 W 1033.5 7.9 9.0 0.0
19-04-2018 04:54 5 94 8.9 1031.3 0.0 0.0 W 1033.5 8.0 8.9 0.0
19-04-2018 04:59 5 94 8.9 1031.3 0.0 0.0 W 1033.5 8.0 8.9 0.0
19-04-2018 05:04 5 93 9.0 1031.2 0.0 0.0 NWW 1033.4 7.9 9.0 0.0
19-04-2018 05:09 5 94 8.8 1031.2 0.0 0.0 NWW 1033.4 7.9 8.8 0.0
19-04-2018 05:14 5 94 8.8 1031.2 0.0 0.0 NWW 1033.4 7.9 8.8 0.0
19-04-2018 05:19 5 94 8.8 1031.2 0.0 0.0 NWW 1033.4 7.9 8.8 0.0
19-04-2018 05:24 5 94 8.8 1031.2 0.0 0.0 NWW 1033.4 7.9 8.8 0.0
19-04-2018 05:29 5 95 8.9 1031.2 0.0 0.0 NWW 1033.4 8.2 8.9 0.0
19-04-2018 05:34 5 94 8.6 1031.2 0.0 0.0 NWW 1033.4 7.7 8.6 0.0
19-04-2018 05:39 5 94 8.4 1031.4 0.0 0.0 NWW 1033.6 7.5 8.4 0.0
19-04-2018 05:44 5 94 8.3 1031.3 0.0 0.0 NWW 1033.5 7.4 8.3 0.0
19-04-2018 05:49 5 94 8.1 1031.4 0.0 0.0 NWW 1033.6 7.2 8.1 0.0
19-04-2018 05:54 5 94 8.2 1031.3 0.0 0.0 NWW 1033.5 7.3 8.2 0.0
19-04-2018 05:59 5 94 8.1 1031.4 0.0 0.0 NWW 1033.6 7.2 8.1 0.0
19-04-2018 06:04 5 94 8.1 1031.4 0.0 0.0 NWW 1033.6 7.2 8.1 0.0
19-04-2018 06:09 5 94 8.1 1031.3 0.0 0.0 NWW 1033.5 7.2 8.1 0.0
19-04-2018 06:14 5 94 7.9 1031.3 0.0 0.0 NWW 1033.5 7.0 7.9 0.0
19-04-2018 06:19 5 94 7.8 1031.3 0.0 0.0 NWW 1033.5 6.9 7.8 0.0
19-04-2018 06:24 5 94 7.8 1031.3 0.0 0.0 NWW 1033.5 6.9 7.8 0.0
19-04-2018 06:29 5 94 7.8 1031.3 0.0 0.0 NWW 1033.5 6.9 7.8 0.0
19-04-2018 06:34 5 94 7.9 1031.2 0.0 0.0 NWW 1033.4 7.0 7.9 0.0
19-04-2018 06:39 5 94 7.7 1031.2 0.0 0.0 NWW 1033.4 6.8 7.7 0.0
19-04-2018 06:44 5 94 7.7 1031.1 0.0 0.0 NWW 1033.3 6.8 7.7 0.0
19-04-2018 06:49 5 94 7.9 1031.2 0.0 0.0 NWW 1033.4 7.0 7.9 0.0
19-04-2018 06:54 5 95 7.9 1031.2 0.0 0.0 NWW 1033.4 7.2 7.9 0.0
19-04-2018 06:59 5 95 8.1 1031.3 0.0 0.0 NWW 1033.5 7.4 8.1 0.0
19-04-2018 07:04 5 95 7.8 1031.2 0.0 0.0 NWW 1033.4 7.1 7.8 0.0
19-04-2018 07:09 5 95 7.8 1031.4 0.0 0.0 NWW 1033.6 7.1 7.8 0.0
19-04-2018 07:14 5 95 8.2 1031.3 0.0 0.0 NWW 1033.5 7.5 8.2 0.0
19-04-2018 07:19 5 95 8.3 1031.3 0.0 0.0 NWW 1033.5 7.6 8.3 0.0
19-04-2018 07:24 5 95 8.5 1031.3 0.0 0.0 NWW 1033.5 7.8 8.5 0.0
19-04-2018 07:29 5 94 9.1 1031.4 0.0 0.0 NWW 1033.6 8.2 9.1 0.0
19-04-2018 07:34 5 94 10.3 1031.4 0.0 0.0 NWW 1033.6 9.4 10.3 0.0
19-04-2018 07:39 5 94 10.9 1031.3 0.0 0.0 NWW 1033.5 10.0 10.9 0.0
19-04-2018 07:44 5 94 11.9 1031.4 0.0 0.0 NWW 1033.6 11.0 11.9 0.0
19-04-2018 07:49 5 93 12.2 1031.3 0.0 0.0 NWW 1033.5 11.1 12.2 0.0
19-04-2018 07:54 5 93 13.1 1031.4 0.0 0.0 NWW 1033.6 12.0 13.1 0.0
19-04-2018 07:59 5 93 13.8 1031.4 0.0 0.0 NWW 1033.6 12.7 13.8 0.0
19-04-2018 08:04 5 92 13.8 1031.4 0.0 0.0 NWW 1033.6 12.5 13.8 0.0
19-04-2018 08:09 5 92 13.8 1031.4 0.0 0.0 NWW 1033.6 12.5 13.8 0.0
19-04-2018 08:14 5 89 14.5 1031.4 0.0 0.0 NWW 1033.6 12.7 14.5 0.0
19-04-2018 08:19 5 88 14.8 1031.6 0.0 0.0 NWW 1033.8 12.8 14.8 0.0
19-04-2018 08:24 5 86 15.3 1031.6 0.0 0.0 NWW 1033.8 13.0 15.3 0.0
19-04-2018 08:29 5 86 15.9 1031.7 0.0 0.0 NWW 1033.9 13.6 15.9 0.0
19-04-2018 08:34 5 84 16.8 1031.8 0.0 0.0 NWW 1034.0 14.1 16.8 0.0
19-04-2018 08:39 5 78 16.9 1031.7 0.0 0.0 NWW 1033.9 13.1 16.9 0.0
19-04-2018 08:44 5 75 16.6 1031.7 0.0 0.0 NWW 1033.9 12.2 16.6 0.0
19-04-2018 08:49 5 74 16.7 1031.7 0.0 0.0 NWW 1033.9 12.1 16.7 0.0
19-04-2018 08:54 5 73 16.7 1031.7 0.0 0.0 S 1033.9 11.9 16.7 0.0
19-04-2018 08:59 5 73 16.5 1031.8 0.0 0.0 S 1034.0 11.7 16.5 0.0
19-04-2018 09:04 5 74 16.9 1031.9 0.0 0.0 S 1034.1 12.3 16.9 0.0
19-04-2018 09:09 5 72 17.5 1031.9 0.0 0.0 S 1034.1 12.4 17.5 0.0
19-04-2018 09:14 5 71 17.9 1031.9 0.0 0.0 S 1034.1 12.6 17.9 0.0
19-04-2018 09:19 5 71 18.5 1031.8 0.0 0.0 SE 1034.0 13.2 18.5 0.0
19-04-2018 09:24 5 68 19.0 1032.0 0.0 0.0 SE 1034.2 13.0 19.0 0.0
19-04-2018 09:29 5 68 18.4 1031.8 2.5 3.6 SSE 1034.0 12.4 18.4 0.0
19-04-2018 09:34 5 70 18.2 1031.9 1.1 2.5 SE 1034.1 12.7 18.2 0.0
19-04-2018 09:39 5 70 18.3 1031.8 2.5 3.6 S 1034.0 12.8 18.3 0.0
19-04-2018 09:44 5 70 18.0 1031.9 1.1 2.5 S 1034.1 12.5 18.0 0.0
19-04-2018 09:49 5 71 17.7 1032.0 2.5 5.0 SE 1034.2 12.4 17.7 0.0
19-04-2018 09:54 5 71 18.2 1031.9 3.6 5.0 SE 1034.1 12.9 18.2 0.0
19-04-2018 09:59 5 70 18.7 1032.0 2.5 5.0 SE 1034.2 13.1 18.7 0.0
19-04-2018 10:04 5 70 18.7 1032.0 2.5 3.6 S 1034.2 13.1 18.7 0.0
19-04-2018 10:09 5 70 18.7 1032.0 2.5 3.6 S 1034.2 13.1 18.7 0.0
19-04-2018 10:14 5 69 18.7 1031.8 1.1 3.6 S 1034.0 12.9 18.7 0.0
19-04-2018 10:19 5 67 19.0 1031.9 0.0 1.1 S 1034.1 12.8 19.0 0.0
19-04-2018 10:24 5 66 19.1 1031.9 2.5 5.0 SSE 1034.1 12.6 19.1 0.0
19-04-2018 10:29 5 65 19.2 1031.9 3.6 6.1 S 1034.1 12.5 19.2 0.0
19-04-2018 10:34 5 65 19.3 1032.0 1.1 2.5 SE 1034.2 12.6 19.3 0.0
19-04-2018 10:39 5 66 19.5 1032.0 2.5 5.0 S 1034.2 13.0 19.5 0.0
19-04-2018 10:44 5 65 19.6 1032.0 5.0 8.6 SE 1034.2 12.9 19.6 0.0
19-04-2018 10:49 5 65 19.8 1031.9 5.0 8.6 SE 1034.1 13.1 19.8 0.0
19-04-2018 10:54 5 65 19.7 1031.9 1.1 3.6 SSE 1034.1 13.0 19.7 0.0
19-04-2018 10:59 5 65 19.6 1031.9 2.5 5.0 S 1034.1 12.9 19.6 0.0
19-04-2018 11:04 5 64 20.1 1031.9 2.5 5.0 SE 1034.1 13.1 20.1 0.0
19-04-2018 11:09 5 63 20.3 1032.0 3.6 5.0 SE 1034.2 13.1 20.3 0.0
19-04-2018 11:14 5 62 20.3 1031.9 2.5 6.1 SE 1034.1 12.8 20.3 0.0
19-04-2018 11:19 5 60 20.4 1031.9 2.5 6.1 SE 1034.1 12.4 20.4 0.0
19-04-2018 11:24 5 59 20.4 1031.9 1.1 6.1 SE 1034.1 12.1 20.4 0.0
19-04-2018 11:29 5 61 20.6 1032.0 2.5 5.0 S 1034.2 12.8 20.6 0.0
19-04-2018 11:34 5 61 20.7 1031.9 3.6 7.2 SSE 1034.1 12.9 20.7 0.0
19-04-2018 11:39 5 62 20.9 1031.9 3.6 8.6 SE 1034.1 13.4 20.9 0.0
19-04-2018 11:44 5 60 20.9 1031.9 0.0 1.1 S 1034.1 12.9 20.9 0.0
19-04-2018 11:49 5 59 21.3 1032.0 6.1 8.6 SEE 1034.2 13.0 21.3 0.0
19-04-2018 11:54 5 59 21.1 1031.8 3.6 7.2 S 1034.0 12.8 21.1 0.0
19-04-2018 11:59 5 59 21.1 1031.9 1.1 3.6 SE 1034.1 12.8 21.1 0.0
19-04-2018 12:04 5 58 21.5 1032.0 2.5 6.1 SSE 1034.2 12.9 21.5 0.0
19-04-2018 12:09 5 58 21.5 1031.8 2.5 6.1 SSE 1034.0 12.9 21.5 0.0
19-04-2018 12:14 5 57 21.6 1031.8 3.6 7.2 SE 1034.0 12.7 21.6 0.0
19-04-2018 12:19 5 56 21.8 1031.8 1.1 3.6 SE 1034.0 12.7 21.8 0.0
19-04-2018 12:24 5 56 21.7 1031.8 3.6 7.2 E 1034.0 12.6 21.7 0.0
19-04-2018 12:29 5 55 22.1 1031.8 2.5 5.0 SE 1034.0 12.7 22.1 0.0
19-04-2018 12:34 5 55 22.4 1031.7 2.5 3.6 S 1033.9 12.9 22.4 0.0
19-04-2018 12:39 5 55 22.5 1031.7 3.6 6.1 SE 1033.9 13.0 22.5 0.0
19-04-2018 12:44 5 54 22.6 1031.7 2.5 5.0 SE 1033.9 12.9 22.6 0.0
19-04-2018 12:49 5 53 22.8 1031.8 1.1 3.6 SE 1034.0 12.8 22.8 0.0
19-04-2018 12:54 5 53 23.0 1031.6 1.1 2.5 SE 1033.8 12.9 23.0 0.0
19-04-2018 12:59 5 54 23.5 1031.6 7.2 11.2 SSW 1033.8 13.7 23.0 0.0
19-04-2018 13:04 5 52 23.4 1031.6 5.0 7.2 SE 1033.8 13.0 23.4 0.0
19-04-2018 13:09 5 52 23.1 1031.5 3.6 5.0 E 1033.7 12.7 23.1 0.0
19-04-2018 13:14 5 51 23.1 1031.4 1.1 6.1 S 1033.6 12.4 23.1 0.0
19-04-2018 13:19 5 51 23.4 1031.4 0.0 1.1 SSE 1033.6 12.7 23.4 0.0
19-04-2018 13:24 5 49 24.1 1031.5 2.5 5.0 E 1033.7 12.8 24.1 0.0
19-04-2018 13:29 5 48 24.2 1031.4 5.0 7.2 S 1033.6 12.5 24.2 0.0
19-04-2018 13:34 5 48 23.9 1031.4 2.5 5.0 SSE 1033.6 12.3 23.9 0.0
19-04-2018 13:39 5 47 24.0 1031.4 3.6 6.1 E 1033.6 12.0 24.0 0.0
19-04-2018 13:44 5 47 24.3 1031.3 2.5 3.6 E 1033.5 12.3 24.3 0.0
19-04-2018 13:49 5 46 24.2 1031.3 0.0 1.1 SE 1033.5 11.9 24.2 0.0
19-04-2018 13:54 5 48 24.4 1031.3 3.6 6.1 E 1033.5 12.7 24.4 0.0
19-04-2018 13:59 5 47 24.2 1031.4 3.6 6.1 S 1033.6 12.2 24.2 0.0
19-04-2018 14:04 5 47 24.3 1031.3 2.5 3.6 W 1033.5 12.3 24.3 0.0
19-04-2018 14:09 5 47 24.3 1031.3 2.5 3.6 W 1033.5 12.3 24.3 0.0
19-04-2018 14:14 5 45 25.0 1031.2 1.1 3.6 SE 1033.4 12.3 25.0 0.0
19-04-2018 14:19 5 45 25.3 1031.2 2.5 3.6 SE 1033.4 12.5 25.3 0.0
19-04-2018 14:24 5 45 25.6 1031.2 1.1 3.6 NWW 1033.4 12.8 25.6 0.0
19-04-2018 14:29 5 45 25.9 1031.1 5.0 8.6 SE 1033.3 13.1 25.9 0.0
19-04-2018 14:34 5 46 24.8 1031.2 3.6 5.0 E 1033.4 12.4 24.8 0.0
19-04-2018 14:39 5 46 24.7 1031.1 0.0 2.5 W 1033.3 12.3 24.7 0.0
19-04-2018 14:44 5 45 25.1 1031.1 0.0 3.6 S 1033.3 12.4 25.1 0.0
19-04-2018 14:49 5 46 25.9 1031.1 2.5 6.1 E 1033.3 13.4 25.9 0.0
19-04-2018 14:54 5 45 25.8 1031.0 3.6 6.1 SE 1033.2 13.0 25.8 0.0
19-04-2018 14:59 5 44 25.8 1031.2 0.0 2.5 S 1033.4 12.7 25.8 0.0
19-04-2018 15:04 5 44 26.3 1030.9 1.1 3.6 NWW 1033.1 13.1 26.3 0.0
19-04-2018 15:09 5 43 26.1 1030.9 5.0 8.6 E 1033.1 12.6 26.1 0.0
19-04-2018 15:14 5 44 25.1 1030.9 5.0 7.2 NE 1033.1 12.0 25.1 0.0
19-04-2018 15:19 5 45 25.0 1030.9 5.0 7.2 NE 1033.1 12.3 25.0 0.0
19-04-2018 15:24 5 44 25.0 1030.8 6.1 8.6 E 1033.0 11.9 25.0 0.0
19-04-2018 15:29 5 46 24.8 1030.8 3.6 6.1 NE 1033.0 12.4 24.8 0.0
19-04-2018 15:34 5 44 25.4 1030.6 3.6 6.1 SE 1032.8 12.3 25.4 0.0
19-04-2018 15:39 5 42 26.0 1030.7 5.0 6.1 NE 1032.9 12.1 26.0 0.0
19-04-2018 15:44 5 40 26.0 1030.8 5.0 8.6 SE 1033.0 11.4 26.0 0.0
19-04-2018 15:49 5 43 25.7 1030.7 7.2 9.7 NEE 1032.9 12.2 25.3 0.0
19-04-2018 15:54 5 43 25.4 1030.6 2.5 5.0 NE 1032.8 11.9 25.4 0.0
19-04-2018 15:59 5 43 25.3 1030.5 5.0 8.6 E 1032.7 11.9 25.3 0.0
19-04-2018 16:04 5 46 24.9 1030.5 7.2 9.7 NWW 1032.7 12.5 24.5 0.0
19-04-2018 16:09 5 46 24.9 1030.5 7.2 9.7 NWW 1032.7 12.5 24.5 0.0
19-04-2018 16:14 5 48 24.4 1030.5 6.1 8.6 E 1032.7 12.7 24.4 0.0
19-04-2018 16:19 5 48 24.4 1030.4 8.6 11.2 E 1032.6 12.7 23.7 0.0
19-04-2018 16:24 5 49 24.1 1030.3 9.7 11.2 E 1032.5 12.8 23.1 0.0
19-04-2018 16:29 5 49 24.0 1030.3 3.6 6.1 NE 1032.5 12.7 24.0 0.0
19-04-2018 16:34 5 48 24.9 1030.2 3.6 6.1 E 1032.4 13.2 24.9 0.0
19-04-2018 16:39 5 47 25.4 1030.1 2.5 3.6 E 1032.3 13.3 25.4 0.0
19-04-2018 16:44 5 45 26.2 1030.2 6.1 9.7 NE 1032.4 13.4 26.2 0.0
19-04-2018 16:49 5 46 25.8 1030.1 6.1 8.6 E 1032.3 13.3 25.8 0.0
19-04-2018 16:54 5 47 24.9 1030.2 5.0 6.1 SE 1032.4 12.8 24.9 0.0
19-04-2018 16:59 5 48 25.1 1030.3 8.6 11.2 NE 1032.5 13.4 24.4 0.0
19-04-2018 17:04 5 47 25.0 1030.2 2.5 5.0 E 1032.4 12.9 25.0 0.0
19-04-2018 17:09 5 47 25.0 1030.1 3.6 6.1 E 1032.3 12.9 25.0 0.0
19-04-2018 17:14 5 46 25.2 1030.0 5.0 7.2 NEE 1032.2 12.8 25.2 0.0
19-04-2018 17:19 5 46 25.6 1030.0 8.6 12.2 NE 1032.2 13.2 25.0 0.0
19-04-2018 17:24 5 46 25.2 1029.9 9.7 12.2 NE 1032.1 12.8 24.3 0.0
19-04-2018 17:29 5 46 25.0 1029.8 6.1 8.6 NE 1032.0 12.6 25.0 0.0
19-04-2018 17:34 5 46 25.2 1029.9 6.1 7.2 E 1032.1 12.8 25.2 0.0
19-04-2018 17:39 5 45 25.4 1029.9 7.2 9.7 NEE 1032.1 12.6 25.0 0.0
19-04-2018 17:44 5 46 24.9 1029.9 9.7 12.2 NNE 1032.1 12.5 24.0 0.0
19-04-2018 17:49 5 46 25.1 1029.8 7.2 9.7 NE 1032.0 12.7 24.7 0.0
19-04-2018 17:54 5 45 25.1 1029.8 5.0 7.2 NE 1032.0 12.4 25.1 0.0
19-04-2018 17:59 5 46 25.5 1029.7 3.6 5.0 NE 1031.9 13.1 25.5 0.0
19-04-2018 18:04 5 44 25.6 1029.8 6.1 9.7 E 1032.0 12.5 25.6 0.0
19-04-2018 18:09 5 44 25.6 1029.7 6.1 9.7 E 1031.9 12.5 25.6 0.0
19-04-2018 18:14 5 46 24.4 1029.7 3.6 6.1 E 1031.9 12.1 24.4 0.0
19-04-2018 18:19 5 47 24.2 1029.5 7.2 9.7 E 1031.7 12.2 23.8 0.0
19-04-2018 18:24 5 48 24.0 1029.5 3.6 6.1 E 1031.7 12.3 24.0 0.0
19-04-2018 18:29 5 48 24.1 1029.5 6.1 7.2 NEE 1031.7 12.4 24.1 0.0
19-04-2018 18:34 5 48 24.2 1029.5 3.6 6.1 E 1031.7 12.5 24.2 0.0
19-04-2018 18:39 5 50 24.1 1029.4 5.0 6.1 NE 1031.6 13.1 24.1 0.0
19-04-2018 18:44 5 50 23.9 1029.4 3.6 7.2 NE 1031.6 12.9 23.9 0.0
19-04-2018 18:49 5 50 23.5 1029.3 5.0 6.1 E 1031.5 12.5 23.5 0.0
19-04-2018 18:54 5 54 23.5 1029.3 6.1 7.2 E 1031.5 13.7 23.5 0.0
19-04-2018 18:59 5 53 23.6 1029.3 6.1 9.7 NE 1031.5 13.5 23.6 0.0
19-04-2018 19:04 5 53 23.8 1029.3 5.0 6.1 E 1031.5 13.7 23.8 0.0
19-04-2018 19:09 5 52 24.3 1029.2 3.6 6.1 NNE 1031.4 13.8 24.3 0.0
19-04-2018 19:14 5 51 24.6 1029.2 3.6 6.1 NE 1031.4 13.8 24.6 0.0
19-04-2018 19:19 5 51 24.4 1029.2 3.6 6.1 E 1031.4 13.6 24.4 0.0
19-04-2018 19:24 5 52 24.2 1029.2 3.6 5.0 E 1031.4 13.8 24.2 0.0
19-04-2018 19:29 5 51 24.1 1029.0 3.6 5.0 E 1031.2 13.4 24.1 0.0
19-04-2018 19:34 5 53 23.8 1029.2 5.0 7.2 E 1031.4 13.7 23.8 0.0
19-04-2018 19:39 5 54 23.6 1029.0 3.6 6.1 E 1031.2 13.8 23.6 0.0
19-04-2018 19:44 5 54 23.3 1029.1 5.0 6.1 E 1031.3 13.5 23.3 0.0
19-04-2018 19:49 5 55 23.1 1028.9 1.1 2.5 SE 1031.1 13.6 23.1 0.0
19-04-2018 19:54 5 56 22.7 1028.9 2.5 3.6 E 1031.1 13.5 22.7 0.0
19-04-2018 19:59 5 56 22.4 1029.1 2.5 5.0 E 1031.3 13.2 22.4 0.0
19-04-2018 20:04 5 57 22.1 1029.0 2.5 3.6 E 1031.2 13.2 22.1 0.0
19-04-2018 20:09 5 57 22.1 1029.0 2.5 3.6 E 1031.2 13.2 22.1 0.0
19-04-2018 20:14 5 59 21.3 1028.9 1.1 3.6 E 1031.1 13.0 21.3 0.0
19-04-2018 20:19 5 60 21.0 1029.0 2.5 5.0 SE 1031.2 13.0 21.0 0.0
19-04-2018 20:24 5 62 20.5 1029.1 2.5 3.6 SE 1031.3 13.0 20.5 0.0
19-04-2018 20:29 5 63 20.3 1029.0 3.6 6.1 E 1031.2 13.1 20.3 0.0
19-04-2018 20:34 5 63 20.1 1029.1 1.1 3.6 E 1031.3 12.9 20.1 0.0
19-04-2018 20:39 5 63 20.0 1029.0 2.5 3.6 E 1031.2 12.8 20.0 0.0
19-04-2018 20:44 5 64 19.7 1029.0 1.1 2.5 E 1031.2 12.7 19.7 0.0
19-04-2018 20:49 5 65 19.4 1028.9 2.5 3.6 SE 1031.1 12.7 19.4 0.0
19-04-2018 20:54 5 65 19.2 1029.0 5.0 6.1 SE 1031.2 12.5 19.2 0.0
19-04-2018 20:59 5 65 19.2 1029.0 1.1 3.6 SE 1031.2 12.5 19.2 0.0
19-04-2018 21:04 5 65 19.1 1028.9 1.1 3.6 SE 1031.1 12.4 19.1 0.0
19-04-2018 21:09 5 65 18.9 1028.9 1.1 2.5 SE 1031.1 12.2 18.9 0.0
19-04-2018 21:14 5 66 18.6 1029.0 0.0 0.0 SE 1031.2 12.1 18.6 0.0
19-04-2018 21:19 5 66 18.2 1029.0 0.0 1.1 SE 1031.2 11.8 18.2 0.0
19-04-2018 21:24 5 66 17.9 1029.0 0.0 0.0 SE 1031.2 11.5 17.9 0.0
19-04-2018 21:29 5 67 17.5 1029.0 0.0 0.0 SE 1031.2 11.3 17.5 0.0
19-04-2018 21:34 5 68 17.2 1029.1 0.0 0.0 SE 1031.3 11.3 17.2 0.0
19-04-2018 21:39 5 68 17.1 1028.9 0.0 0.0 SE 1031.1 11.2 17.1 0.0
19-04-2018 21:44 5 70 17.0 1029.0 2.5 3.6 SE 1031.2 11.5 17.0 0.0
19-04-2018 21:49 5 73 16.8 1028.9 1.1 2.5 N 1031.1 12.0 16.8 0.0
19-04-2018 21:54 5 73 16.7 1028.9 0.0 0.0 N 1031.1 11.9 16.7 0.0
19-04-2018 21:59 5 73 16.5 1028.9 0.0 1.1 N 1031.1 11.7 16.5 0.0
19-04-2018 22:04 5 74 16.4 1028.9 0.0 1.1 N 1031.1 11.8 16.4 0.0
19-04-2018 22:09 5 74 16.4 1028.8 0.0 1.1 N 1031.0 11.8 16.4 0.0
19-04-2018 22:14 5 75 15.9 1029.0 0.0 0.0 N 1031.2 11.5 15.9 0.0
19-04-2018 22:19 5 75 16.0 1028.9 0.0 0.0 N 1031.1 11.6 16.0 0.0
19-04-2018 22:24 5 75 16.0 1028.9 0.0 0.0 N 1031.1 11.6 16.0 0.0
19-04-2018 22:29 5 76 15.8 1028.8 0.0 0.0 N 1031.0 11.6 15.8 0.0
19-04-2018 22:34 5 76 15.4 1028.8 0.0 0.0 N 1031.0 11.2 15.4 0.0
19-04-2018 22:39 5 76 15.2 1028.8 0.0 0.0 N 1031.0 11.0 15.2 0.0
19-04-2018 22:44 5 77 15.0 1028.8 0.0 0.0 NWW 1031.0 11.0 15.0 0.0
19-04-2018 22:49 5 78 14.8 1028.7 1.1 2.5 W 1030.9 11.0 14.8 0.0
19-04-2018 22:54 5 80 14.8 1028.6 1.1 2.5 W 1030.8 11.4 14.8 0.0
19-04-2018 22:59 5 81 14.8 1028.6 0.0 1.1 W 1030.8 11.6 14.8 0.0
19-04-2018 23:04 5 83 14.9 1028.7 0.0 0.0 W 1030.9 12.1 14.9 0.0
19-04-2018 23:09 5 83 14.9 1028.5 0.0 0.0 W 1030.7 12.1 14.9 0.0
19-04-2018 23:14 5 83 14.7 1028.6 0.0 0.0 W 1030.8 11.9 14.7 0.0
19-04-2018 23:19 5 82 14.3 1028.6 0.0 0.0 W 1030.8 11.3 14.3 0.0
19-04-2018 23:24 5 84 14.3 1028.5 1.1 2.5 W 1030.7 11.7 14.3 0.0
19-04-2018 23:29 5 85 14.6 1028.4 1.1 2.5 W 1030.6 12.1 14.6 0.0
19-04-2018 23:34 5 84 15.0 1028.4 3.6 5.0 W 1030.6 12.3 15.0 0.0
19-04-2018 23:39 5 85 15.1 1028.4 3.6 5.0 W 1030.6 12.6 15.1 0.0
19-04-2018 23:44 5 85 15.1 1028.2 2.5 3.6 W 1030.4 12.6 15.1 0.0
19-04-2018 23:49 5 85 15.1 1028.3 3.6 5.0 W 1030.5 12.6 15.1 0.0
19-04-2018 23:54 5 85 15.1 1028.3 2.5 3.6 S 1030.5 12.6 15.1 0.0
19-04-2018 23:59 5 85 15.2 1028.2 2.5 3.6 SE 1030.4 12.7 15.2 0.0

                                                                             Tabelle: 08 : 00 UHR

STATIONHÖHELUFTD.TEMP.T-MinT-MaxU%RR1RR12SSSDDFFFXWetter+WolkenBöen
UFS TW Ems 0 ------ --- --- --- --- ---- --- --- -- --- --- --- ---
UFS Deutsche Bucht 0 ------ --- --- --- --- ---- --- --- -- --- --- --- ---
Helgoland 4 1029.8 9.0 8.1 11.7 91 0.0 0 --- O 30 33 Dunst oder flacher Nebel ---
List/Sylt 26 1030.8 11.2 9.9 15.1 89 0.0 0 0 SO 19 24 Dunst oder flacher Nebel ---
Schleswig 43 1031.6 11.6 8.4 17.5 90 0.0 0 0 O 6 10 Dunst oder flacher Nebel ---
Leuchtturm Kiel 5 1031.7 13.5 12.5 18.6 79 ---- --- --- S 14 --- --- ---
Kiel 27 1031.7 13.4 7.9 17.5 85 0.0 0 --- SO 4 8 wolkenlos ---
Fehmarn 3 1032.0 12.7 8.5 12.7 91 0.0 0 0 S 8 12 Dunst oder flacher Nebel ---
Arkona 42 1032.2 13.0 9.7 15.9 86 0.0 0 0 N 7 15   ---
Norderney 11 1029.0 14.0 13.0 18.1 73 0.0 0 0 SO 17 26 wolkenlos ---
Leuchtt. Alte Weser 32 ------ --- --- --- --- ---- --- --- -- --- --- --- ---
Cuxhaven 5 1030.6 10.9 10.0 16.6 89 0.0 0 0 SO 13 21 Dunst oder flacher Nebel ---
Hamburg-Flh. 11 1031.3 13.8 10.7 19.2 83 0.0 0 0 SO 9 11 heiter ---
Schwerin 59 1032.2 12.1 8.9 20.3 88 0.0 0 0 O 7 9 --- ---
Rostock 4 1032.3 12.8 9.8 16.3 81 0.0 0 --- S 5 8 Dunst oder flacher Nebel ---
Greifswald 2 1032.5 12.4 8.5 18.6 85 0.0 0 0 W 4 6 Dunst oder flacher Nebel ---
Emden 0 1029.0 13.0 9.8 20.2 78 0.0 0 --- SO 10 13 wolkenlos ---
Bremen-Flh. 5 1030.2 13.5 9.7 21.3 73 0.0 0 0 SO 12 18 heiter ---
Lüchow 17 1032.1 10.3 7.5 21.1 96 0.0 0 0 NO 4 5 Dunst oder flacher Nebel ---
Marnitz 81 1032.4 12.4 8.4 18.6 86 0.0 0 --- NO 2 3 --- ---
Waren 70 1032.6 11.5 8.8 19.8 88 0.0 0 0 S 2 4 --- ---
Neuruppin 38 1032.5 10.3 8.5 20.1 94 0.0 0 --- - 0 0 wolkenlos ---
Angermünde 56 1032.5 12.8 8.2 19.2 89 0.0 0 0 NW 3 7 --- ---
Münster/Osnabr.-Flh. 48 1029.1 15.7 12.9 22.8 63 0.0 0 0 O 8 17 heiter ---
Hannover-Flh. 59 1031.0 11.2 9.4 20.7 87 0.0 0 0 O 9 14 heiter ---
Magdeburg 76 1031.7 12.1 8.5 21.4 87 0.0 0 0 N 3 8 Dunst oder flacher Nebel ---
Potsdam 81 1032.2 12.6 10.7 20.2 83 0.0 0 0 SO 10 16 heiter ---
Berlin-Tegel 37 1032.3 14.1 8.6 21.6 74 0.0 0 0 NO 4 5 wolkenlos ---
Berlin-Tempelhof 48 1032.4 13.1 9.5 19.2 89 0.0 0 --- - 0 4 --- ---
Berlin-Dahlem 51 1032.3 11.1 8.8 20.6 --- ---- 0 0 SO 4 --- heiter ---
Lindenberg 91 1032.0 15.1 11.9 19.4 70 0.0 0 0 O 6 14 heiter ---
Düsseldorf-Flh. 45 1027.7 16.6 10.8 23.9 56 0.0 0 0 SO 9 17 heiter ---
Essen 150 1027.9 17.4 15.0 23.8 54 0.0 0 --- O 13 18 wolkenlos ---
Kahler Asten 839 ------ 14.2 13.4 17.8 49 0.0 0 0 SO 24 35 wolkenlos ---
Bad Lippspringe 157 1029.5 17.9 13.1 19.9 44 0.0 0 0 SO 9 17 wolkenlos ---
Fritzlar 174 1031.1 9.5 7.2 23.2 83 ---- 0 0 NW 11 --- heiter ---
Brocken 1142 ------ 12.1 10.8 13.1 60 ---- 0 0 SO 12 18 heiter ---
Leipzig-Flh. 142 1031.8 12.4 10.0 19.8 85 0.0 0 0 S 6 9 heiter ---
Dresden-Flh. 227 1032.1 10.5 8.5 18.7 83 0.0 0 0 S 16 21 heiter ---
Cottbus 69 1032.0 10.4 6.5 18.6 86 0.0 0 0 - 0 3 --- ---
Görlitz 238 1032.3 10.8 7.2 17.5 81 0.0 0 0 O 3 8 heiter ---
Aachen 231 1026.9 16.5 13.2 20.4 56 0.0 0 0 SO 15 22 --- ---
Nürburg 485 1028.0 16.4 14.5 20.5 46 0.0 0 --- SO 5 17 --- ---
Köln/Bonn-Flh. 92 1028.5 12.6 10.0 23.8 71 0.0 0 0 SO 11 15 heiter ---
Gießen/Wettenberg 203 1030.1 10.2 8.3 22.6 83 0.0 0 0 O 6 10 wolkenlos ---
Wasserkuppe 921 ------ 13.4 10.5 16.3 47 0.0 0 0 SO 28 41 heiter ---
Meiningen 450 1031.0 13.3 9.0 21.6 57 0.0 0 0 SO 2 8   ---
Erfurt 316 1031.3 13.4 8.0 19.5 66 0.0 0 0 O 4 --- heiter ---
Gera 311 1032.0 9.5 7.3 19.2 83 0.0 0 --- S 8 14 --- ---
Fichtelberg 1213 ------ 11.2 8.8 13.0 64 ---- 0 0 SO 21 26 wolkenlos ---
Trier 265 1028.5 11.2 9.9 22.3 76 0.0 0 0 NO 8 14 --- ---
Hahn-Flh. 497 1028.7 13.3 11.8 20.3 60 0.0 0 0 W 2 9 --- ---
Frankfurt/M-Flh. 112 1029.3 15.5 11.0 24.5 57 0.0 0 0 NO 9 15 heiter ---
OF-Wetterpark 119 1029.7 11.5 8.4 23.9 79 0.0 0 0 O 6 10 --- ---
Würzburg 268 1030.7 12.1 9.3 21.6 72 0.0 0 0 O 4 8 wolkenlos ---
Bamberg 239 1031.1 9.1 4.6 22.8 84 0.0 0 0 S 2 5 wolkenlos ---
Hof 567 1032.0 10.8 6.1 18.7 69 0.0 0 0 - 0 3 wolkenlos ---
Weiden 438 1032.1 9.3 7.1 19.6 64 0.0 0 0 - 0 4 wolkenlos ---
Saarbrücken-Flh. 320 1027.7 14.1 10.0 21.3 63 0.0 0 0 O 9 16 heiter ---
Karlsruhe-Rheinst. 116 1028.2 13.6 11.4 23.4 69 0.0 0 0 NO 12 19 --- ---
Mannheim 96 1028.6 12.2 7.9 22.2 86 0.0 0 0 W 6 9 --- ---
Stuttgart-Flh. 371 1028.8 12.5 7.8 20.3 69 0.0 0 --- - 0 5 heiter ---
Öhringen 276 1028.9 14.4 12.1 21.6 62 0.0 0 0 O 11 19 wolkenlos ---
Nürnberg-Flh. 314 1031.0 9.6 7.4 22.0 79 0.0 0 0 O 5 9 heiter ---
Regensburg 366 1031.9 7.3 5.2 19.5 86 0.0 0 0 NW 5 14 wolkenlos ---
Straubing 351 1031.4 10.3 5.2 19.6 74 0.0 0 0 W 2 6 wolkenlos ---
Großer Arber 1436 ------ 10.7 7.6 10.8 22 0.0 0 --- SO 19 24 wolkenlos ---
Lahr 155 1028.1 12.8 9.5 22.3 66 0.0 0 0 SW 4 12 wolkenlos ---
Freudenstadt 797 ------ 13.0 10.3 17.7 54 0.0 0 0 -- 10 17 --- ---
Stötten 734 1028.7 12.1 11.0 16.8 64 0.0 0 0 O 30 45 wolkenlos ---
Augsburg 462 1029.9 11.1 6.5 17.6 77 0.0 0 0 N 7 13 --- ---
München-Flh. 444 1030.9 9.5 3.0 18.5 84 0.0 0 0 NO 5 8 heiter ---
Fürstenzell 476 1031.4 10.9 7.4 18.9 63 0.0 0 0 NO 9 14 --- ---
Feldberg/Schw. 1486 ------ 11.7 8.9 12.8 40 0.0 0 51 SO 17 27 wolkenlos ---
Konstanz 443 1029.1 10.6 9.1 20.3 69 0.0 0 0 W 4 6 --- ---
Kempten 705 1029.7 8.5 4.5 17.5 74 0.0 0 0 SO 6 13 wolkenlos ---
Oberstdorf 806 ------ 1.6 0.5 14.7 88 0.0 0 0 SO 4 11 wolkenlos ---
Zugspitze 2960 ------ 2.3 0.3 2.3 32 ---- 0 400 SO 32 43 heiter ---
Hohenpeißenberg 977 ------ 12.1 10.2 14.7 47 0.0 0 0 O 15 28 heiter ---

                                                                                               Tabelle: 20 : 00 UHR  

STATIONHÖHELUFTD.TEMP.T-MinT-MaxU%RR1RR12SSSDDFFFXWetter+WolkenBöen
UFS TW Ems 0 1025.1 11.5 8.0 12.8 81 ---- --- --- O 29 --- --- ---
UFS Deutsche Bucht 26 ------ --- --- --- --- ---- --- --- -- --- --- --- ---
Helgoland 4 1026.0 14.0 9.0 15.6 71 0.0 0 0 SO 33 38 wolkenlos ---
List/Sylt 26 1026.8 18.9 11.2 21.9 57 0.0 0 --- S 17 24 wolkenlos ---
Schleswig 43 1027.7 19.6 11.6 24.9 66 0.0 0 0 O 11 21 heiter ---
Leuchtturm Kiel 5 1028.2 18.1 12.8 19.0 64 ---- --- --- SO 40 --- --- ---
Kiel 27 1028.0 21.4 13.4 25.3 55 0.0 0 --- SO 8 18 wolkenlos ---
Fehmarn 3 1029.1 15.0 12.8 20.9 73 0.0 0 0 SO 14 19 --- ---
Arkona 42 1030.2 13.9 9.5 15.6 85 0.0 0 0 S 11 12 --- ---
Norderney 11 ------ --- --- --- --- ---- --- --- -- --- ---   ---
Leuchtt. Alte Weser 32 1025.8 24.8 13.0 25.4 35 ---- --- --- SO 22 --- --- ---
Cuxhaven 5 1026.7 20.9 10.8 22.7 59 0.0 0 0 SO 19 23 wolkenlos ---
Hamburg-Flh 11 1027.7 22.8 13.8 25.8 45 0.0 0 0 SO 15 24 heiter ---
Schwerin 59 1028.5 22.0 12.2 24.4 47 0.0 0 0 SO 8 17 --- ---
Rostock 4 1029.3 15.0 12.9 20.5 76 0.0 0 --- O 10 21 --- ---
Greifswald 2 1030.2 16.2 12.5 20.1 75 0.0 0 0 O 10 17 heiter ---
Emden 0 1025.2 22.2 13.1 26.9 55 0.0 0 --- O 19 28 wolkenlos ---
Bremen-Flh. 5 1026.5 24.4 13.5 26.0 37 0.0 0 0 SO 13 22 heiter ---
Lüchow 17 1028.4 22.7 10.3 24.6 50 0.0 0 0 O 6 14 wolkenlos ---
Marnitz 81 1028.7 20.4 12.2 24.3 60 0.0 0 0 O 6 12 --- ---
Waren 70 1029.1 20.5 11.5 23.2 60 0.0 0 0 O 9 17 --- ---
Neuruppin 38 1028.8 20.5 10.3 24.3 65 0.0 0 --- O 6 15 wolkenlos ---
Angermünde 56 1029.6 19.0 13.0 23.2 71 0.0 0 0 NO 9 17 --- ---
Münster/Osnabr.-Flh. 48 1025.2 25.4 15.7 28.4 31 0.0 0 0 O 8 23 heiter ---
Hannover-Flh. 59 1027.4 23.1 11.2 26.2 39 0.0 0 0 SO 14 28 heiter ---
Magdeburg 76 1028.2 21.9 12.1 25.4 52 0.0 0 0 SO 4 13 --- ---
Potsdam 81 1028.8 20.6 12.6 25.1 61 0.0 0 0 O 9 14 heiter ---
Berlin-Tegel 37 1028.8 22.1 14.1 24.9 51 0.0 0 0 O 8 17 heiter ---
Berlin-Tempelhof 48 1028.9 21.5 13.2 24.7 52 0.0 0 --- O 9 14 --- ---
Berlin-Dahlem 51 1028.7 21.2 11.1 24.4 --- ---- 0 0 O 11 --- heiter ---
Lindenberg 91 1029.1 20.3 15.3 23.9 58 0.0 0 0 NO 6 12 heiter ---
Düsseldorf-Flh. 45 1024.0 25.6 16.7 28.8 26 0.0 0 0 S 13 26 heiter ---
Essen 150 1024.1 26.3 17.6 28.6 21 0.0 0 --- S 7 18 --- ---
Kahler Asten 839 ------ 19.5 14.3 22.3 35 0.0 0 0 O 16 22 --- ---
Bad Lippspringe 157 1025.9 23.0 17.9 26.8 37 0.0 0 0 O 10 18 --- ---
Fritzlar 174 1026.0 22.2 9.6 26.5 36 ---- 0 0 O 11 --- heiter ---
Brocken 1142 ------ 13.6 12.0 19.1 60 ---- 0 0 O 25 30 heiter ---
Leipzig-Flh. 142 1028.2 20.6 12.5 23.7 54 0.0 0 0 O 6 13 heiter ---
Dresden-Flh. 227 1028.3 20.7 10.6 23.4 48 0.0 0 0 NO 11 16 heiter ---
Cottbus 69 1028.6 21.6 10.5 24.9 54 0.0 0 0 NO 6 12 --- ---
Görlitz 238 1028.4 19.5 10.9 23.9 67 0.0 0 0 N 10 12 heiter ---
Aachen 231 1023.6 21.7 16.5 26.6 48 0.0 0 0 O 15 26 --- ---
Nürburg 485 1024.5 21.7 16.5 24.7 30 0.0 0 --- SO 10 27 wolkenlos ---
Köln/Bonn-Flh. 92 1024.3 26.2 12.7 28.1 24 0.0 0 0 SO 13 25 heiter ---
Gießen/Wettenberg 203 1024.8 24.5 10.3 27.2 23 0.0 0 0 SO 10 19 wolkenlos ---
Wasserkuppe 921 ------ 16.7 13.5 23.2 37 0.0 0 0 SO 17 21 heiter ---
Meiningen 450 1026.0 22.1 13.0 25.2 30 0.0 0 0 S 4 12   ---
Erfurt 316 1027.3 20.3 13.4 23.6 55 0.0 0 0 O 13 23 heiter ---
Gera 311 1027.8 19.5 9.6 23.4 55 0.0 0 0 NO 14 21 --- ---
Fichtelberg 1213 ------ 12.7 11.2 17.8 61 ---- 0 0 O 15 19 heiter ---
Trier 265 1023.8 23.9 10.9 29.3 36 0.0 0 0 O 9 24 --- ---
Hahn-Flh. 497 1024.7 21.4 12.8 23.3 40 0.0 0 0 SO 10 22 --- ---
Frankfurt/M-Flh. 112 1025.0 25.7 15.4 28.1 21 0.0 0 0 SO 8 18 heiter ---
OF-Wetterpark 119 1025.0 25.3 11.5 28.0 24 0.0 0 0 O 6 21 --- ---
Würzburg 268 1025.7 23.2 11.0 26.8 28 0.0 0 0 SO 14 17 wolkenlos ---
Bamberg 239 1025.8 23.1 9.0 27.7 30 0.0 0 0 O 8 18 wolkenlos ---
Hof 567 1027.0 19.6 11.0 24.1 54 0.0 0 0 NO 10 22 --- ---
Weiden 438 1026.7 20.7 9.0 24.3 41 0.0 0 0 O 7 18 wolkenlos ---
Saarbrücken-Flh. 320 1024.2 21.8 14.2 26.6 48 0.0 0 0 O 8 17 heiter ---
Karlsruhe-Rheinst. 116 1023.9 23.5 13.6 27.2 37 0.0 0 0 O 10 24 --- ---
Mannheim 96 1024.6 24.4 12.3 28.6 33 0.0 0 0 O 9 17 --- ---
Stuttgart-Flh. 371 1024.3 21.8 12.5 25.0 38 0.0 0 --- O 10 21 heiter ---
Öhringen 276 1025.0 22.4 14.4 27.0 33 0.0 0 --- O 10 23 wolkenlos ---
Nürnberg-Flh. 314 1025.6 23.3 9.7 26.3 25 0.0 0 0 O 9 21 heiter ---
Regensburg 366 1025.8 21.4 7.3 26.2 39 0.0 0 0 NO 6 13 wolkenlos ---
Straubing 351 1025.8 21.5 10.8 24.4 42 0.0 0 0 NO 6 13 --- ---
Großer Arber 1436 ------ 11.7 10.6 16.7 54 0.0 0 --- O 16 21 --- ---
Lahr 155 1023.4 22.1 12.9 26.4 54 0.0 0 0 N 6 13 wolkenlos ---
Freudenstadt 797 ------ 19.5 12.9 23.3 40 0.0 0 --- O 11 26 --- ---
Stötten 734 1025.3 18.3 12.1 21.8 41 0.0 0 0 O 16 26 wolkenlos ---
Augsburg 462 1025.7 18.8 11.2 23.9 39 0.0 0 0 O 12 27 --- ---
München-Flh. 444 1025.6 19.6 9.7 23.2 40 0.0 0 0 O 13 22 heiter ---
Fürstenzell 476 1026.1 20.3 10.9 23.8 44 0.0 0 --- O 21 32 --- ---
Feldberg/Schw. 1486 ------ 14.8 11.6 16.9 42 0.0 0 46 SO 15 22 wolkenlos ---
Konstanz 443 1023.5 23.3 10.8 25.8 33 0.0 0 0 O 2 7 wolkenlos ---
Kempten 705 1024.1 19.9 8.6 23.9 38 0.0 0 0 NO 6 12 wolkenlos ---
Oberstdorf 806 ------ 16.5 1.7 23.5 51 0.0 0 0 SO 17 20 wolkenlos ---
Zugspitze 2960 ------ 4.0 2.3 7.2 47 ---- 0 400 SO 23 24 wolkenlos ---
Hohenpeißenberg 977 ------ 16.7 11.8 20.6 47 0.0 0 0 NO 18 27 wolkenlos ---

                                                                                 

  • Temperatur
  • Wetterzustand
  • Windrichtung und -geschwindigkeit
  • Luftdruck
  • relative Luftfeuchtigkeit
  • Sichtweite
  • Gesamtbedeckungsgrad
  • Niederschlag
  • Sonnenscheindauer

 Höhe:     m über NN
Luftd.:   auf Meereshöhe reduzierter Luftdruck in hPa
TEMP.:   Lufttemperatur in Grad Celsius
T-MIN:   Minimumtemperatur der Luft in 2m Höhe in Grad Celsius, von 18 UTC Vortag bis 06 UTC heute
T-MAX:  Maximumtemperatur der Luft in 2m Höhe in Grad Celsius, von 18 UTC Vortag bis 06 UTC heute
RR1:     Niederschlagsmenge, einstündig, mm ist gleich Liter pro
RR12:   Niederschlagsmenge, 12 stündig, 18 UTC Vortag bis 06 UTC heute in mm ist gleich Liter pro
SSS:     Gesamtschneehöhe
DD:      Windrichtung
FF:       Windgeschwindigkeit letztes 10-Minutenmittel in km/h
FX:       höchste Windspitze während der letzten Stunde in km/h
---:      Wert nicht vorhanden

 

2009-2018

Unwetterwarnungen

 

Radarbild          
aktueller Radarfilm Deutschland

Europa-Meteoalarm